Date,TemperatureHighF,TemperatureAvgF,TemperatureLowF,DewpointHighF,DewpointAvgF,DewpointLowF,HumidityHigh,HumidityAvg,HumidityLow,PressureMaxIn,PressureMinIn,WindSpeedMaxMPH,WindSpeedAvgMPH,GustSpeedMaxMPH,PrecipitationSumIn
2012-1-1,57,47,36,34,27,17,65,48,21,30.67,30.23,10,4,23,0.00
2012-1-2,49,37,26,26,21,13,86,57,26,30.83,30.64,7,1,14,0.00
2012-1-3,57,40,23,30,25,19,89,60,34,30.64,30.21,6,2,16,0.00
2012-1-4,62,44,33,36,31,27,85,61,34,30.37,30.20,7,1,14,0.00
2012-1-5,64,44,27,35,31,25,95,64,31,30.38,30.07,4,1,9,0.00
2012-1-6,71,52,38,48,40,34,96,68,32,30.07,29.82,7,1,16,0.00
2012-1-7,56,49,43,43,36,28,83,61,48,30.09,29.90,9,4,15,0.00
2012-1-8,54,50,43,44,40,32,85,69,52,30.21,30.07,7,2,13,0.00
2012-1-9,50,45,39,34,30,26,75,57,40,30.26,30.10,8,4,15,0.02
2012-1-10,45,42,39,42,39,34,95,88,66,30.15,29.85,13,3,23,1.52
2012-1-11,63,43,28,43,34,25,98,74,40,30.10,29.67,13,3,27,0.14
2012-1-12,39,31,22,25,11,1,77,47,20,30.29,30.09,10,4,22,0.00
2012-1-13,54,34,20,27,20,14,88,60,26,30.33,30.22,3,0,7,0.00
2012-1-14,62,42,26,31,26,23,92,59,23,30.35,30.24,4,0,9,0.00
2012-1-15,64,47,31,50,36,27,93,67,39,30.30,30.04,9,3,20,0.00
2012-1-16,72,62,55,61,56,50,92,81,64,30.05,29.79,9,4,18,0.00
2012-1-17,62,42,31,58,29,18,88,61,37,30.43,29.84,11,5,20,0.00
2012-1-18,49,35,21,31,23,17,85,63,40,30.43,30.04,5,1,12,0.00
2012-1-19,64,48,35,40,36,30,91,66,40,30.04,29.86,4,1,8,0.00
2012-1-20,75,52,37,46,38,29,97,62,30,30.03,29.67,10,3,19,0.00
2012-1-21,48,37,26,37,26,18,89,65,44,30.17,29.85,9,3,17,0.00
2012-1-22,72,54,40,54,40,22,97,67,15,29.96,29.56,12,6,22,0.00
2012-1-23,62,46,35,36,31,24,85,58,25,30.17,29.96,2,0,6,0.00
2012-1-24,64,47,33,46,36,27,94,67,34,30.13,29.95,9,3,19,1.15
2012-1-25,48,46,44,46,45,43,96,93,89,30.05,29.87,15,4,25,2.41
2012-1-26,59,47,35,44,38,32,94,74,36,30.06,29.88,6,2,13,0.12
2012-1-27,67,48,33,46,36,30,95,66,42,30.26,29.84,10,3,21,0.07
2012-1-28,52,41,29,31,25,18,88,57,30,30.54,30.26,12,3,20,0.00
2012-1-29,60,41,23,32,28,22,96,65,31,30.49,30.29,6,1,11,0.00
2012-1-30,67,52,38,54,42,31,85,70,47,30.29,30.04,8,2,18,0.00
2012-1-31,73,62,46,57,53,43,93,74,45,30.07,29.94,8,4,16,0.00
2012-2-1,70,53,42,48,43,39,94,72,41,30.19,30.06,6,1,10,0.01
2012-2-2,69,54,35,59,49,33,97,83,64,30.20,30.00,5,2,13,0.01
2012-2-3,70,62,51,65,60,46,98,92,79,30.04,29.83,7,3,17,0.13
2012-2-4,51,45,42,47,37,33,89,74,61,30.39,30.04,11,5,19,0.03
2012-2-5,46,40,30,34,32,27,94,73,61,30.48,30.39,9,4,16,0.00
2012-2-6,55,41,26,39,31,25,96,73,40,30.44,30.24,4,0,6,0.00
2012-2-7,56,48,43,42,39,37,90,72,54,30.44,30.24,7,1,21,0.00
2012-2-8,42,39,36,37,33,30,85,79,67,30.55,30.40,6,2,12,0.00
2012-2-9,45,38,27,43,34,26,96,85,72,30.42,30.16,3,1,9,0.15
2012-2-10,48,40,30,42,35,20,97,81,56,30.45,30.14,11,4,20,0.22
2012-2-11,30,26,22,21,12,8,68,56,43,30.73,30.46,11,6,20,0.01
2012-2-12,43,32,24,30,17,11,94,54,34,30.74,30.29,6,2,14,0.00
2012-2-13,41,36,31,40,34,29,98,96,93,30.30,29.87,4,1,11,0.41
2012-2-14,52,45,39,48,43,38,99,95,85,30.03,29.89,4,2,13,0.02
2012-2-15,72,55,48,57,44,29,99,74,23,30.10,29.84,7,2,16,0.00
2012-2-16,57,48,41,44,41,38,91,77,59,30.33,30.10,8,3,15,0.00
2012-2-17,58,50,41,50,45,39,93,83,73,30.22,30.06,3,1,8,0.00
2012-2-18,53,49,40,48,45,37,94,86,70,30.12,29.96,7,3,16,0.26
2012-2-19,58,45,32,44,39,31,97,82,55,30.20,30.03,3,1,9,0.03
2012-2-20,65,50,41,52,41,21,95,74,22,30.14,29.81,10,4,30,0.02
2012-2-21,69,49,27,41,30,24,91,55,22,30.19,29.87,8,2,17,0.01
2012-2-22,73,57,42,45,39,33,93,57,25,29.87,29.49,4,1,11,0.00
2012-2-23,76,62,49,43,36,28,61,39,25,29.92,29.34,10,4,21,0.00
2012-2-24,58,47,32,28,22,15,77,40,19,30.38,29.92,13,4,22,0.00
2012-2-25,64,46,26,32,24,19,90,50,18,30.43,30.14,8,2,17,0.00
2012-2-26,64,52,41,46,37,25,82,57,39,30.19,30.01,8,3,16,0.00
2012-2-27,64,56,45,51,48,42,92,74,60,30.35,30.19,7,2,13,0.00
2012-2-28,70,63,57,64,57,45,93,82,69,30.20,29.78,8,3,16,0.00
2012-2-29,72,60,42,58,31,21,76,36,15,30.04,29.89,4,1,11,0.00
2012-3-1,83,60,39,64,40,24,88,58,12,29.92,29.53,7,2,18,0.00
2012-3-2,67,57,47,64,40,26,89,55,32,30.01,29.49,9,4,16,0.00
2012-3-3,59,48,36,33,24,16,77,44,19,30.18,30.01,8,2,14,0.00
2012-3-4,72,51,31,35,27,23,77,45,17,30.21,30.11,5,1,11,0.00
2012-3-5,77,59,39,39,35,31,82,45,19,30.34,30.15,9,3,16,0.00
2012-3-6,71,62,54,54,48,34,83,62,42,30.16,29.93,11,6,24,0.00
2012-3-7,71,66,63,62,58,53,87,78,67,29.95,29.86,8,4,18,0.00
2012-3-8,67,49,39,64,45,30,95,84,68,30.45,29.89,17,8,32,0.09
2012-3-9,59,48,38,31,26,22,71,45,25,30.58,30.41,15,6,22,0.04
2012-3-10,55,47,38,45,36,-100,96,72,46,30.44,30.12,9,2,14,1.67
2012-3-11,59,51,46,52,48,45,99,91,74,30.15,29.92,5,2,12,2.42
2012-3-12,80,64,50,56,52,45,96,70,30,30.01,29.92,6,2,12,0.01
2012-3-13,78,66,58,65,61,55,99,84,63,30.10,29.98,7,2,16,0.01
2012-3-14,74,69,64,66,64,62,95,84,66,30.11,30.00,7,3,14,0.00
2012-3-15,79,71,66,67,65,63,92,80,63,30.11,30.00,8,4,14,0.00
2012-3-16,80,70,62,66,64,61,98,81,58,30.07,29.93,9,3,17,0.00
2012-3-17,74,70,66,65,63,61,90,80,70,30.00,29.88,9,3,19,0.00
2012-3-18,75,56,66,64,31,-100,87,63,69,29.95,29.80,8,-191,22,0.00
2012-3-23,72,65,51,51,48,46,90,56,41,30.03,29.96,3,1,10,0.01
2012-3-24,80,63,45,56,50,44,96,68,39,30.09,29.98,3,0,6,0.00
2012-3-25,83,66,50,59,54,49,97,70,37,30.12,29.99,3,0,6,0.00
2012-3-26,84,68,51,60,56,50,97,70,39,30.08,29.94,6,1,12,0.00
2012-3-27,77,67,57,60,57,54,95,73,50,30.03,29.92,7,1,18,0.00
2012-3-28,80,68,58,67,62,56,95,80,63,30.03,29.90,4,1,11,0.00
2012-3-29,79,68,59,66,62,58,97,83,57,29.93,29.78,3,1,9,0.00
2012-3-30,80,71,62,68,65,61,98,84,63,29.88,29.73,3,1,10,0.00
2012-3-31,82,73,66,70,67,65,98,84,61,29.83,29.75,3,1,8,0.15
2012-4-1,86,74,65,70,67,64,99,80,56,29.78,29.58,5,1,12,0.01
2012-4-2,82,73,65,68,64,57,88,74,58,29.72,29.56,6,2,17,0.01
2012-4-3,68,62,58,63,60,55,98,93,76,29.90,29.68,11,2,24,1.33
2012-4-4,69,60,51,60,54,48,99,82,54,29.91,29.80,3,1,10,0.09
2012-4-5,72,59,46,57,52,45,98,79,55,29.98,29.82,5,1,10,0.01
2012-4-6,73,61,52,60,55,51,96,82,60,30.08,29.97,4,1,10,0.00
2012-4-7,81,67,60,66,60,56,90,80,60,30.25,30.03,7,2,14,0.00
2012-4-8,68,62,58,63,59,57,97,91,78,30.32,30.20,5,2,13,1.07
2012-4-9,73,65,57,65,61,56,98,88,72,30.23,30.05,2,0,7,0.01
2012-4-10,84,71,60,66,62,59,98,77,48,30.12,30.01,4,0,7,0.00
2012-4-11,79,68,59,65,62,56,98,82,61,30.15,30.02,5,2,13,0.00
2012-4-12,74,64,55,65,58,51,87,80,70,30.09,29.87,4,2,11,0.00
2012-4-13,79,72,65,69,65,60,90,79,68,29.93,29.80,5,2,14,0.00
2012-4-14,78,73,70,69,66,-100,90,80,72,29.84,29.61,7,3,16,0.00
2012-4-15,75,67,56,68,54,38,95,68,27,29.91,29.56,6,2,14,0.28
2012-4-16,72,61,50,49,45,42,82,58,37,30.23,29.91,7,2,15,0.16
2012-4-17,78,62,46,56,49,44,95,67,37,30.30,30.16,3,0,7,0.00
2012-4-18,78,66,53,60,55,50,92,70,48,30.20,29.96,3,1,10,0.00
2012-4-19,80,68,55,59,54,49,81,61,41,29.96,29.60,6,1,17,0.00
2012-4-20,76,61,52,61,53,46,92,75,41,30.07,29.60,8,3,19,0.03
2012-4-21,74,59,41,53,45,-100,95,66,35,30.11,29.98,3,0,8,0.01
2012-4-22,74,63,49,55,46,38,96,60,31,30.22,30.03,8,2,16,0.00
2012-4-23,75,60,43,50,43,37,90,55,26,30.30,30.06,3,1,8,0.00
2012-4-24,86,68,47,60,53,44,92,62,36,30.07,29.77,4,1,12,0.00
2012-4-25,89,77,67,71,65,56,81,65,51,29.78,29.65,5,2,17,0.00
2012-4-26,81,74,68,70,68,65,95,82,68,29.83,29.70,5,2,12,0.00
2012-4-27,90,77,68,68,65,62,91,69,43,29.77,29.62,5,2,14,0.00
2012-4-28,85,76,70,69,65,-100,85,71,57,29.85,29.67,4,2,14,0.00
2012-4-29,84,75,67,69,65,62,88,72,59,29.94,29.79,3,1,12,0.00
2012-4-30,84,76,70,72,68,62,86,76,65,29.98,29.80,3,1,10,0.04
2012-5-1,86,75,64,70,66,61,96,75,53,29.92,29.72,6,2,15,0.15
2012-5-2,81,75,68,69,67,64,92,77,67,29.86,29.76,4,1,11,0.01
2012-5-3,92,79,68,72,69,65,91,72,52,29.89,29.79,4,1,11,0.00
2012-5-4,92,81,73,73,68,52,85,68,34,29.90,29.71,5,1,17,0.00
2012-5-5,91,80,67,74,66,-100,79,65,52,29.85,29.71,4,1,11,0.00
2012-5-6,87,79,73,73,70,64,93,74,50,29.83,29.73,3,1,9,0.00
2012-5-7,74,70,65,67,64,60,92,82,75,29.95,29.78,7,2,14,0.00
2012-5-8,72,65,59,61,56,53,93,75,51,30.08,29.95,7,3,15,0.36
2012-5-9,83,68,51,56,50,44,95,61,28,30.11,29.95,5,1,9,0.01
2012-5-10,82,69,51,58,52,47,96,60,31,29.98,29.84,4,1,10,0.00
2012-5-11,70,64,61,64,59,54,95,86,56,30.02,29.83,7,2,14,0.61
2012-5-12,74,64,60,62,59,-100,96,84,58,30.18,30.02,5,2,12,0.02
2012-5-13,80,69,59,64,59,57,93,73,49,30.22,30.10,6,1,11,0.04
2012-5-14,80,69,57,61,57,53,96,68,41,30.15,30.03,5,2,12,0.04
2012-5-15,83,69,53,59,55,52,96,65,37,30.11,29.98,4,0,7,0.00
2012-5-16,89,72,55,63,57,53,96,64,30,30.07,29.96,3,0,7,0.00
2012-5-17,90,74,55,64,58,53,96,61,31,30.02,29.85,2,0,9,0.00
2012-5-18,88,76,62,64,59,56,86,58,36,29.91,29.76,5,1,17,0.00
2012-5-19,87,77,67,66,60,-100,83,60,42,29.93,29.82,5,2,17,0.00
2012-5-20,89,75,66,65,61,55,80,62,32,30.13,29.93,10,2,16,0.01
2012-5-21,85,73,59,64,61,57,95,69,43,30.19,30.06,6,2,11,0.01
2012-5-22,90,75,60,64,59,52,83,58,40,30.08,29.78,4,1,8,0.00
2012-5-23,92,81,68,67,62,54,82,56,31,29.79,29.50,6,2,18,0.00
2012-5-24,92,82,73,72,69,65,82,66,50,29.64,29.49,4,2,17,0.00
2012-5-25,92,83,74,72,70,68,84,66,48,29.87,29.64,4,2,15,0.00
2012-5-26,91,81,74,71,69,66,87,69,49,29.97,29.86,4,1,11,0.00
2012-5-27,91,80,69,68,64,60,85,61,40,29.93,29.77,4,2,16,0.00
2012-5-28,95,80,69,72,66,59,80,64,47,29.86,29.72,4,1,14,0.17
2012-5-29,93,80,64,73,67,59,91,65,51,29.91,29.72,4,1,9,0.17
2012-5-30,89,75,65,72,64,59,95,72,41,29.94,29.69,12,2,28,0.76
2012-5-31,82,74,67,63,58,50,80,60,40,30.00,29.67,8,3,18,0.20
2012-6-1,81,68,58,57,53,50,78,60,39,30.06,29.89,6,1,15,0.00
2012-6-2,95,75,59,73,61,-100,82,64,44,29.94,29.76,5,1,11,0.00
2012-6-3,93,82,72,76,70,64,83,67,53,29.87,29.73,3,1,10,0.00
2012-6-4,87,79,68,74,70,65,94,75,62,29.93,29.74,9,1,17,0.14
2012-6-5,96,80,71,76,69,66,93,71,40,29.88,29.70,6,1,15,0.05
2012-6-6,84,74,67,70,67,65,96,80,63,29.88,29.74,8,3,15,0.78
2012-6-7,75,69,65,66,65,62,96,88,65,30.05,29.88,5,2,9,1.08
2012-6-8,87,76,65,65,62,59,90,65,40,30.04,29.85,4,1,8,0.01
2012-6-9,89,77,63,71,66,-100,95,72,52,29.88,29.68,3,1,10,0.00
2012-6-10,91,82,74,73,71,68,84,70,52,29.72,29.67,5,2,14,0.00
2012-6-11,99,86,74,79,75,69,93,73,50,29.98,29.69,5,1,9,0.75
2012-6-12,85,76,66,71,68,65,97,78,58,30.14,29.96,6,1,12,0.85
2012-6-13,77,72,68,72,68,66,95,89,78,30.05,29.90,3,0,10,0.22
2012-6-14,92,81,71,77,72,69,94,77,55,29.92,29.79,3,1,10,0.06
2012-6-15,86,78,72,76,71,67,91,81,69,29.97,29.83,5,1,11,0.00
2012-6-16,91,79,70,74,70,-100,93,76,54,30.03,29.93,3,1,10,0.00
2012-6-17,91,79,71,77,72,68,95,80,59,30.00,29.78,3,1,9,0.18
2012-6-18,91,81,71,72,70,68,93,71,51,29.81,29.73,4,1,13,0.18
2012-6-19,91,81,73,73,70,67,90,72,51,29.87,29.77,6,2,16,0.00
2012-6-20,89,81,74,74,70,68,86,72,54,29.93,29.86,4,2,13,0.00
2012-6-21,91,81,70,74,71,68,94,73,54,30.04,29.91,5,1,12,0.00
2012-6-22,96,83,70,75,72,68,95,71,46,29.99,29.84,2,0,6,0.00
2012-6-23,96,85,72,75,70,66,93,65,42,29.91,29.83,3,1,8,0.00
2012-6-24,99,84,68,72,68,65,92,60,35,29.96,29.86,3,0,7,0.00
2012-6-25,102,86,68,74,69,66,94,62,31,29.93,29.77,1,0,5,0.00
2012-6-26,105,89,71,76,71,66,94,61,31,29.82,29.72,3,0,7,0.00
2012-6-27,99,88,78,76,71,60,83,60,38,29.91,29.77,4,1,8,0.00
2012-6-28,100,86,69,70,64,60,77,51,31,30.00,29.91,4,1,12,0.00
2012-6-29,98,86,73,73,67,62,82,55,33,29.97,29.82,3,1,13,0.00
2012-6-30,97,87,74,72,69,66,84,57,38,29.89,29.79,3,1,10,0.00
2012-7-1,92,82,72,73,70,67,90,68,46,29.96,29.85,4,1,12,0.00
2012-7-2,91,82,72,74,70,66,90,68,49,30.04,29.92,4,1,10,0.00
2012-7-3,97,85,74,71,66,60,85,55,32,30.01,29.85,3,1,10,0.00
2012-7-4,96,85,73,72,67,62,84,57,38,29.97,29.85,3,1,10,0.00
2012-7-5,98,87,74,72,67,60,80,54,30,29.99,29.89,3,1,10,0.00
2012-7-6,100,87,72,71,68,65,85,55,33,30.01,29.90,3,0,7,0.00
2012-7-7,101,84,76,72,69,65,79,62,32,30.01,29.93,8,1,16,0.00
2012-7-8,97,85,70,72,70,67,92,64,39,30.02,29.87,4,0,10,0.00
2012-7-9,95,82,77,75,72,70,86,74,52,29.95,29.85,6,0,16,0.03
2012-7-10,94,81,72,74,71,67,95,74,45,29.96,29.85,9,2,21,0.01
2012-7-11,95,84,72,72,67,59,93,62,33,29.98,29.86,7,2,15,0.00
2012-7-12,96,84,72,73,69,65,92,65,39,29.95,29.86,5,1,14,0.00
2012-7-13,96,84,72,75,71,67,95,67,40,29.99,29.89,5,1,11,0.00
2012-7-14,96,83,73,74,70,62,89,66,44,30.02,29.90,10,1,22,0.00
2012-7-15,93,80,68,72,68,65,93,70,43,30.03,29.89,6,1,10,0.00
2012-7-16,94,83,71,72,69,66,92,67,44,29.99,29.83,4,1,11,0.00
2012-7-17,99,86,73,72,68,63,87,57,32,29.95,29.82,3,1,11,0.00
2012-7-18,101,88,74,72,68,65,84,55,31,29.98,29.85,2,0,8,0.00
2012-7-19,103,89,75,72,66,60,78,51,26,30.04,29.89,3,1,7,0.00
2012-7-20,106,90,74,70,66,60,79,48,25,30.00,29.85,3,0,8,0.00
2012-7-21,107,92,73,71,63,53,79,43,18,29.93,29.81,7,2,14,0.00
2012-7-22,100,90,79,75,71,66,79,56,39,29.97,29.88,5,2,12,0.00
2012-7-23,97,88,78,72,69,66,78,55,37,30.04,29.94,3,1,13,0.00
2012-7-24,98,88,78,72,69,67,74,55,37,30.03,29.84,3,1,9,0.00
2012-7-25,101,90,79,74,70,66,77,54,36,29.89,29.73,3,1,13,0.00
2012-7-26,101,86,79,74,71,68,78,62,37,29.88,29.76,5,1,12,0.00
2012-7-27,100,86,76,76,73,69,90,66,40,29.99,29.88,3,0,6,0.00
2012-7-28,105,89,73,73,68,61,92,56,26,30.06,29.94,3,0,10,0.00
2012-7-29,106,91,74,67,62,54,70,43,21,30.02,29.86,3,1,8,0.00
2012-7-30,106,92,74,67,61,55,69,40,20,29.97,29.82,3,1,16,0.00
2012-7-31,108,92,74,70,64,55,70,43,21,29.92,29.80,4,0,11,0.00
2012-8-1,110,96,80,69,66,62,67,40,22,29.87,29.72,3,1,10,0.00
2012-8-2,110,96,79,67,63,59,61,37,21,29.79,29.67,3,1,10,0.00
2012-8-3,107,94,79,71,66,62,69,43,25,29.79,29.70,4,1,11,0.00
2012-8-4,104,92,80,71,66,60,69,45,24,29.93,29.76,4,1,20,0.00
2012-8-5,103,91,78,71,68,66,72,50,34,30.09,29.93,6,1,11,0.00
2012-8-6,106,92,80,71,67,62,65,45,25,30.05,29.85,6,1,11,0.00
2012-8-7,106,89,76,73,69,63,84,56,25,29.93,29.83,7,1,18,0.00
2012-8-8,101,92,77,71,68,65,79,47,35,29.98,29.82,11,2,20,0.03
2012-8-9,107,89,72,72,64,50,87,52,16,29.93,29.75,6,1,14,0.00
2012-8-10,96,86,77,64,57,51,62,40,23,29.96,29.83,9,4,16,0.00
2012-8-11,96,83,70,61,53,-100,54,38,25,30.00,29.86,5,1,9,0.00
2012-8-12,106,86,75,71,66,61,72,54,26,29.94,29.75,5,1,13,0.00
2012-8-13,99,87,74,70,60,51,85,45,22,30.00,29.87,7,2,13,0.00
2012-8-14,98,78,66,74,56,-100,97,54,35,29.96,29.75,7,-30,11,0.35
2012-8-15,94,88,76,74,68,-100,84,56,46,29.91,29.80,0,-33,2,0.25
2012-8-16,91,85,82,74,71,68,69,63,55,29.98,29.86,0,0,0,0.01
2012-8-17,96,86,75,71,66,59,70,53,36,30.01,29.83,0,0,0,0.00
2012-8-18,92,82,73,72,69,65,85,66,44,29.94,29.80,0,0,1,0.00
2012-8-19,89,82,74,71,65,54,79,59,31,29.97,29.86,0,0,4,0.00
2012-8-20,92,85,76,64,60,55,65,43,30,30.00,29.87,0,0,1,0.00
2012-8-21,93,86,79,66,62,59,58,45,38,30.05,29.95,0,0,0,0.00
2012-8-22,91,82,74,66,61,54,73,50,34,30.11,29.96,1,0,5,0.02
2012-8-23,91,80,72,66,62,58,73,55,39,30.04,29.90,2,0,7,0.03
2012-8-24,90,82,71,72,68,62,83,64,48,29.94,29.78,4,1,12,0.01
2012-8-25,93,84,75,75,71,67,92,66,43,29.84,29.76,5,2,15,0.21
2012-8-26,88,78,71,75,72,69,96,81,57,30.01,29.85,2,1,8,0.01
2012-8-27,94,82,69,75,70,66,99,71,42,30.07,29.93,6,2,13,0.01
2012-8-28,95,84,76,73,66,53,81,58,27,30.02,29.88,7,3,18,0.01
2012-8-29,94,83,70,58,53,45,60,38,19,29.95,29.79,9,3,15,0.00
2012-8-30,96,86,74,67,60,50,56,42,33,29.85,29.70,9,4,20,0.00
2012-8-31,100,86,74,70,66,61,77,54,31,29.90,29.77,4,1,12,0.00
2012-9-1,103,87,73,73,68,62,84,57,27,29.99,29.86,3,0,9,0.00
2012-9-2,103,88,73,73,68,64,87,55,31,29.95,29.82,4,1,9,0.00
2012-9-3,103,90,74,69,67,65,76,49,30,29.92,29.80,3,1,9,0.00
2012-9-4,103,89,72,72,67,64,80,51,30,29.88,29.75,3,0,8,0.00
2012-9-5,105,85,72,74,68,62,93,60,28,29.83,29.72,8,1,21,0.78
2012-9-6,97,83,74,73,70,65,95,68,35,29.93,29.79,2,0,7,0.78
2012-9-7,105,86,69,71,66,59,87,56,25,29.99,29.68,12,2,25,0.03
2012-9-8,84,72,61,63,53,46,91,57,28,30.15,29.98,8,4,18,0.20
2012-9-9,91,70,52,56,51,45,93,59,21,30.18,30.04,4,0,7,0.00
2012-9-10,93,74,56,59,52,48,88,53,22,30.13,29.98,2,0,8,0.00
2012-9-11,91,76,59,59,54,48,82,52,24,30.08,29.95,4,1,12,0.00
2012-9-12,91,79,68,69,61,56,77,56,36,30.05,29.93,4,1,10,0.00
2012-9-13,77,71,67,70,64,58,86,77,57,30.20,29.99,6,2,12,0.01
2012-9-14,67,62,60,62,59,58,93,89,81,30.26,30.16,6,2,12,0.05
2012-9-15,74,65,60,62,59,57,93,83,67,30.25,30.10,2,0,8,0.01
2012-9-16,73,67,63,64,62,59,96,84,68,30.12,29.97,1,0,6,0.02
2012-9-17,81,70,61,66,63,60,98,81,55,29.98,29.80,3,0,8,0.01
2012-9-18,80,70,57,63,51,40,95,57,26,30.12,29.90,8,3,17,0.00
2012-9-19,88,69,50,51,48,45,91,52,24,30.15,29.99,3,1,8,0.00
2012-9-20,95,77,59,61,55,49,76,50,28,30.04,29.88,3,0,8,0.00
2012-9-21,95,79,66,61,56,47,78,49,20,29.98,29.86,3,1,10,0.00
2012-9-22,97,79,58,60,53,-100,86,46,21,30.08,29.92,6,1,13,0.00
2012-9-23,94,77,63,59,53,49,62,46,25,30.17,30.03,5,1,11,0.00
2012-9-24,94,79,62,67,59,53,83,55,26,30.11,29.89,4,1,14,0.00
2012-9-25,94,83,73,66,61,56,72,49,28,29.95,29.78,5,2,13,0.00
2012-9-26,92,79,67,71,66,60,94,67,43,30.00,29.87,10,1,21,0.32
2012-9-27,87,76,67,68,65,60,86,70,42,30.09,29.98,9,2,16,0.21
2012-9-28,83,74,67,70,68,66,96,81,58,30.09,29.98,3,0,5,0.00
2012-9-29,74,69,64,70,67,62,97,94,84,30.02,29.92,4,1,12,0.67
2012-9-30,73,66,59,65,62,57,98,87,61,29.95,29.87,4,1,10,0.63
2012-10-1,82,68,56,59,54,48,98,66,32,29.91,29.82,8,2,14,0.01
2012-10-2,78,67,58,56,52,48,87,61,36,29.99,29.90,5,2,11,0.01
2012-10-3,82,67,51,59,54,50,97,67,37,30.01,29.91,4,1,9,0.00
2012-10-4,80,70,62,68,60,54,82,72,62,30.12,30.01,4,1,12,0.00
2012-10-5,66,60,52,57,52,43,79,73,65,30.19,30.06,8,4,19,0.00
2012-10-6,51,48,47,44,38,32,78,68,54,30.35,30.18,8,5,18,0.00
2012-10-7,53,48,42,38,34,27,80,59,37,30.40,30.25,6,2,11,0.01
2012-10-8,66,51,31,43,36,30,97,64,32,30.32,30.08,3,0,8,0.01
2012-10-9,79,63,51,62,54,42,87,72,55,30.11,29.84,6,2,12,0.00
2012-10-10,66,62,58,59,56,51,93,80,65,30.22,30.01,8,3,16,0.00
2012-10-11,81,71,62,71,65,57,93,81,68,30.15,30.03,3,1,9,0.00
2012-10-12,86,76,68,71,68,66,95,78,57,30.15,30.03,4,1,10,0.00
2012-10-13,82,73,65,72,68,61,97,85,68,30.04,29.72,5,2,17,0.80
2012-10-14,80,65,52,61,52,46,94,68,31,30.10,29.80,7,1,15,0.80
2012-10-15,83,64,47,56,51,46,98,68,31,30.14,29.95,2,0,6,0.00
2012-10-16,78,67,58,61,55,51,85,68,48,29.97,29.62,5,1,12,0.00
2012-10-17,82,71,58,67,57,38,93,66,35,29.85,29.49,6,2,17,0.00
2012-10-18,71,58,42,41,34,26,89,46,20,30.04,29.84,7,1,14,0.00
2012-10-19,76,57,43,42,34,24,76,47,16,30.05,29.89,6,1,13,0.00
2012-10-20,84,68,49,66,52,37,81,59,46,29.90,29.70,4,1,13,0.00
2012-10-21,88,78,70,72,69,65,91,75,55,29.82,29.73,5,2,18,0.00
2012-10-22,79,72,65,70,67,63,96,85,72,29.97,29.80,4,1,14,0.10
2012-10-23,84,74,68,71,68,66,96,82,63,29.94,29.82,4,1,10,0.03
2012-10-24,80,72,66,69,66,64,94,81,63,29.94,29.78,3,1,10,0.00
2012-10-25,74,63,48,67,54,39,90,74,59,30.17,29.75,9,4,20,0.00
2012-10-26,53,46,41,39,34,28,81,63,41,30.41,30.17,10,5,19,0.00
2012-10-27,62,41,34,32,29,25,85,66,24,30.42,30.23,5,1,10,0.02
2012-10-28,60,45,30,35,31,28,93,64,31,30.39,30.24,6,1,12,0.02
2012-10-29,67,48,30,40,32,28,94,62,24,30.36,30.16,3,0,9,0.00
2012-10-30,76,53,36,46,40,33,92,65,32,30.17,29.94,3,0,7,0.00
2012-10-31,77,58,42,50,45,40,93,68,34,30.06,29.95,3,0,7,0.00
2012-11-1,85,62,45,53,48,43,96,68,29,30.07,29.91,2,0,6,0.00
2012-11-2,87,67,48,61,52,46,97,65,29,29.98,29.85,5,1,11,0.00
2012-11-3,73,64,55,56,47,38,91,57,36,30.14,29.92,6,2,13,0.00
2012-11-4,71,57,47,50,44,37,93,62,44,30.20,30.06,5,1,10,0.00
2012-11-5,72,56,43,51,41,32,98,64,25,30.14,30.05,10,2,24,0.00
2012-11-6,71,52,36,44,40,34,93,67,34,30.19,30.07,2,0,9,0.00
2012-11-7,73,55,39,42,37,32,93,56,23,30.24,30.09,3,0,7,0.00
2012-11-8,80,64,48,58,48,38,77,58,44,30.10,29.91,6,2,14,0.00
2012-11-9,80,71,63,63,60,56,88,69,52,29.98,29.85,6,2,18,0.00
2012-11-10,78,71,65,61,59,56,84,68,53,29.96,29.76,8,4,20,0.00
2012-11-11,71,56,37,64,50,30,94,80,67,30.32,29.74,9,3,19,0.61
2012-11-12,53,39,27,31,26,21,92,64,30,30.57,30.32,3,1,8,0.21
2012-11-13,59,42,26,38,27,22,97,63,25,30.59,30.37,3,0,9,0.00
2012-11-14,60,44,30,38,30,-100,94,64,32,30.48,30.32,3,0,8,0.00
2012-11-15,62,46,33,37,33,30,88,63,37,30.40,30.29,3,0,7,0.00
2012-11-16,64,46,32,40,34,30,96,68,33,30.48,30.37,3,0,6,0.00
2012-11-17,63,46,31,38,32,29,95,63,30,30.46,30.32,2,0,7,0.00
2012-11-18,66,55,40,41,38,31,71,54,36,30.33,30.19,4,1,11,0.00
2012-11-19,73,62,52,57,48,38,91,62,46,30.22,30.09,4,1,10,0.00
2012-11-20,78,60,45,58,51,44,98,76,39,30.24,30.13,2,0,5,0.00
2012-11-21,77,60,43,56,48,41,97,67,33,30.29,30.10,4,1,9,0.00
2012-11-22,73,64,56,55,52,47,86,64,49,30.11,29.98,8,1,19,0.00
2012-11-23,63,54,38,56,33,23,87,46,25,30.49,30.11,11,6,23,0.00
2012-11-24,60,43,26,27,24,22,89,52,23,30.49,30.13,3,1,8,0.00
2012-11-25,72,55,38,52,36,26,77,51,33,30.13,29.83,5,1,12,0.00
2012-11-26,62,54,42,57,46,27,97,73,53,30.34,29.84,10,4,19,0.00
2012-11-27,54,41,31,34,30,27,87,67,45,30.51,30.34,9,2,16,0.00
2012-11-28,64,46,28,42,35,26,97,70,42,30.47,30.27,3,1,10,0.00
2012-11-29,69,53,37,45,39,34,90,62,30,30.28,30.08,5,1,14,0.00
2012-11-30,73,58,47,59,53,44,97,83,58,30.14,30.00,6,1,12,0.00
2012-12-1,80,69,60,63,60,56,95,76,46,30.03,29.87,7,3,18,0.00
2012-12-2,80,69,60,64,60,58,95,77,55,30.07,29.93,6,2,14,0.00
2012-12-3,79,70,63,62,60,58,89,73,51,29.96,29.82,8,4,21,0.00
2012-12-4,69,60,50,62,36,22,83,44,18,30.32,29.93,12,4,20,0.00
2012-12-5,65,52,37,46,37,27,87,59,37,30.33,30.07,5,1,9,0.00
2012-12-6,68,56,48,52,47,-100,96,77,52,30.07,29.78,6,2,14,0.00
2012-12-7,56,52,46,52,49,44,97,91,79,29.93,29.81,2,0,7,0.00
2012-12-8,58,49,39,50,46,38,98,90,73,29.98,29.82,3,0,7,0.01
2012-12-9,55,48,33,54,41,13,99,80,43,30.15,29.75,9,3,20,0.01
2012-12-10,40,30,19,24,17,12,92,62,36,30.25,30.14,9,3,24,0.00
2012-12-11,49,29,14,23,16,12,93,64,26,30.31,30.19,3,0,7,0.00
2012-12-12,55,38,19,25,21,15,88,56,27,30.37,30.22,6,1,13,0.00
2012-12-13,62,47,33,31,27,23,68,47,29,30.32,30.17,6,2,15,0.00
2012-12-14,55,51,47,54,39,28,96,67,42,30.21,29.83,5,2,17,0.28
2012-12-15,64,56,48,54,38,33,95,54,34,29.90,29.79,6,2,11,0.19
2012-12-16,70,57,47,39,35,25,71,47,20,29.83,29.68,5,1,16,0.00
2012-12-17,58,44,35,39,36,32,93,75,45,29.95,29.78,3,1,8,0.00
2012-12-18,69,49,34,36,34,31,94,61,27,29.87,29.79,3,0,8,0.00
2012-12-19,73,61,45,62,50,26,96,69,29,29.81,29.55,11,3,25,0.00
2012-12-20,49,39,25,30,16,3,64,43,15,30.46,29.80,12,6,33,0.00
2012-12-21,64,39,19,17,14,9,80,44,12,30.50,30.32,5,1,9,0.00
2012-12-22,63,47,28,45,25,11,67,45,15,30.33,30.02,7,2,22,0.00
2012-12-23,59,50,37,49,40,27,95,69,37,30.02,29.84,3,1,10,0.00
2012-12-24,50,37,27,27,25,21,80,62,39,30.11,29.90,5,2,12,0.00
2012-12-25,37,30,24,35,27,19,94,87,64,30.25,29.80,12,6,20,0.38
2012-12-26,28,20,16,20,15,10,82,78,70,30.38,30.24,5,3,13,0.08
2012-12-27,35,32,26,31,29,23,96,88,80,30.15,29.97,4,2,10,0.03
2012-12-28,35,32,23,32,28,19,97,86,70,30.29,29.99,7,2,15,0.07
2012-12-29,46,28,17,26,20,13,91,73,45,30.52,30.28,4,1,10,0.01
2012-12-30,43,36,22,33,26,20,93,70,47,30.50,30.29,4,2,11,0.10
2012-12-31,43,38,33,42,37,31,98,96,89,30.29,30.01,3,0,14,0.60
2013-1-1,37,34,31,36,32,28,98,91,83,30.37,30.11,6,2,12,0.01